sensor_id;sensor_type;location;lat;lon;timestamp;pressure;altitude;pressure_sealevel;temperature;humidity
77824;BME280;67015;46.242;6.028;2023-04-24T00:27:31;96124.0;;;9.42;96.49
77824;BME280;67015;46.242;6.028;2023-04-24T00:57:31;96127.0;;;9.21;98.14
77824;BME280;67015;46.242;6.028;2023-04-24T01:57:31;96107.0;;;9.14;97.49
77824;BME280;67015;46.242;6.028;2023-04-24T01:57:31;96105.0;;;9.16;97.63
77824;BME280;67015;46.242;6.028;2023-04-24T02:27:30;96118.0;;;9.05;98.09
77824;BME280;67015;46.242;6.028;2023-04-24T02:57:31;96131.0;;;9.04;98.18
77824;BME280;67015;46.242;6.028;2023-04-24T03:27:30;96133.0;;;8.99;98.01
77824;BME280;67015;46.242;6.028;2023-04-24T03:57:31;96131.0;;;8.92;98.33
77824;BME280;67015;46.242;6.028;2023-04-24T04:27:30;96162.0;;;8.84;97.88
77824;BME280;67015;46.242;6.028;2023-04-24T04:57:30;96211.0;;;8.7;98.59
77824;BME280;67015;46.242;6.028;2023-04-24T05:27:30;96233.0;;;8.91;98.71
77824;BME280;67015;46.242;6.028;2023-04-24T05:57:30;96291.0;;;9.22;96.83
77824;BME280;67015;46.242;6.028;2023-04-24T06:27:30;96310.0;;;9.36;91.97
77824;BME280;67015;46.242;6.028;2023-04-24T06:57:30;96344.0;;;10.0;86.13
77824;BME280;67015;46.242;6.028;2023-04-24T07:27:30;96375.0;;;11.87;71.47
77824;BME280;67015;46.242;6.028;2023-04-24T07:57:30;96389.0;;;12.62;60.91
77824;BME280;67015;46.242;6.028;2023-04-24T08:27:31;96430.0;;;15.5;53.21
77824;BME280;67015;46.242;6.028;2023-04-24T08:57:30;96446.0;;;17.29;44.8
77824;BME280;67015;46.242;6.028;2023-04-24T09:27:30;96443.0;;;18.16;40.13
77824;BME280;67015;46.242;6.028;2023-04-24T09:57:30;96436.0;;;19.42;36.61
77824;BME280;67015;46.242;6.028;2023-04-24T10:27:31;96439.0;;;17.75;42.63
77824;BME280;67015;46.242;6.028;2023-04-24T10:57:30;96438.0;;;17.58;40.21
77824;BME280;67015;46.242;6.028;2023-04-24T11:27:30;96435.0;;;16.62;44.58
77824;BME280;67015;46.242;6.028;2023-04-24T11:57:30;96415.0;;;17.73;39.36
77824;BME280;67015;46.242;6.028;2023-04-24T12:27:30;96412.0;;;18.14;36.92
77824;BME280;67015;46.242;6.028;2023-04-24T12:57:30;96407.0;;;17.83;37.68
77824;BME280;67015;46.242;6.028;2023-04-24T13:27:30;96381.0;;;16.84;36.67
77824;BME280;67015;46.242;6.028;2023-04-24T13:57:30;96347.0;;;16.34;38.43
77824;BME280;67015;46.242;6.028;2023-04-24T14:27:30;96328.0;;;15.51;40.31
77824;BME280;67015;46.242;6.028;2023-04-24T14:57:30;96313.0;;;15.35;40.4
77824;BME280;67015;46.242;6.028;2023-04-24T15:27:38;96313.0;;;15.33;40.2
77824;BME280;67015;46.242;6.028;2023-04-24T15:57:29;96312.0;;;15.23;41.23
77824;BME280;67015;46.242;6.028;2023-04-24T16:27:29;96327.0;;;15.05;43.97
77824;BME280;67015;46.242;6.028;2023-04-24T16:57:29;96332.0;;;14.35;45.26
77824;BME280;67015;46.242;6.028;2023-04-24T17:27:29;96331.0;;;13.66;47.78
77824;BME280;67015;46.242;6.028;2023-04-24T17:57:29;96322.0;;;13.46;49.24
77824;BME280;67015;46.242;6.028;2023-04-24T18:27:29;96366.0;;;13.02;52.17
77824;BME280;67015;46.242;6.028;2023-04-24T18:57:29;96383.0;;;12.53;50.37
77824;BME280;67015;46.242;6.028;2023-04-24T19:27:29;96417.0;;;12.24;50.66
77824;BME280;67015;46.242;6.028;2023-04-24T19:57:29;96437.0;;;11.85;51.22
77824;BME280;67015;46.242;6.028;2023-04-24T20:27:29;96441.0;;;11.8;55.22
77824;BME280;67015;46.242;6.028;2023-04-24T20:57:30;96417.0;;;11.27;60.25
77824;BME280;67015;46.242;6.028;2023-04-24T21:27:29;96393.0;;;10.68;63.3
77824;BME280;67015;46.242;6.028;2023-04-24T21:57:28;96368.0;;;10.21;69.64
77824;BME280;67015;46.242;6.028;2023-04-24T22:27:29;96338.0;;;9.98;68.57
77824;BME280;67015;46.242;6.028;2023-04-24T22:57:29;96315.0;;;9.91;72.41
77824;BME280;67015;46.242;6.028;2023-04-24T23:27:29;96290.0;;;9.45;76.9
77824;BME280;67015;46.242;6.028;2023-04-24T23:57:29;96262.0;;;9.19;80.55
